sensor_id;sensor_type;location;lat;lon;timestamp;P1;durP1;ratioP1;P2;durP2;ratioP2
65358;SDS011;52491;45.900;6.346;2023-08-24T00:01:08;7.22;;;3.50;;
65358;SDS011;52491;45.900;6.346;2023-08-24T00:03:36;14.30;;;3.70;;
65358;SDS011;52491;45.900;6.346;2023-08-24T00:06:02;9.77;;;3.60;;
65358;SDS011;52491;45.900;6.346;2023-08-24T00:08:28;9.35;;;3.72;;
65358;SDS011;52491;45.900;6.346;2023-08-24T00:10:54;7.82;;;2.85;;
65358;SDS011;52491;45.900;6.346;2023-08-24T00:13:19;8.75;;;4.18;;
65358;SDS011;52491;45.900;6.346;2023-08-24T00:15:45;10.15;;;4.15;;
65358;SDS011;52491;45.900;6.346;2023-08-24T00:18:11;8.13;;;3.50;;
65358;SDS011;52491;45.900;6.346;2023-08-24T00:20:37;8.48;;;3.28;;
65358;SDS011;52491;45.900;6.346;2023-08-24T00:23:02;7.82;;;3.05;;
65358;SDS011;52491;45.900;6.346;2023-08-24T00:25:29;6.82;;;3.38;;
65358;SDS011;52491;45.900;6.346;2023-08-24T00:27:55;7.40;;;3.33;;
65358;SDS011;52491;45.900;6.346;2023-08-24T00:30:21;8.18;;;3.35;;
65358;SDS011;52491;45.900;6.346;2023-08-24T00:32:48;17.00;;;3.13;;
65358;SDS011;52491;45.900;6.346;2023-08-24T00:35:14;8.23;;;3.22;;
65358;SDS011;52491;45.900;6.346;2023-08-24T00:37:39;10.00;;;3.92;;
65358;SDS011;52491;45.900;6.346;2023-08-24T00:40:06;5.82;;;3.30;;
65358;SDS011;52491;45.900;6.346;2023-08-24T00:42:39;12.73;;;3.85;;
65358;SDS011;52491;45.900;6.346;2023-08-24T00:45:06;10.30;;;3.70;;
65358;SDS011;52491;45.900;6.346;2023-08-24T00:47:34;6.22;;;3.70;;
65358;SDS011;52491;45.900;6.346;2023-08-24T00:50:01;7.32;;;3.42;;
65358;SDS011;52491;45.900;6.346;2023-08-24T00:52:27;9.75;;;3.78;;
65358;SDS011;52491;45.900;6.346;2023-08-24T00:54:56;13.23;;;4.82;;
65358;SDS011;52491;45.900;6.346;2023-08-24T00:57:22;7.88;;;4.35;;
65358;SDS011;52491;45.900;6.346;2023-08-24T00:59:48;10.88;;;4.00;;
65358;SDS011;52491;45.900;6.346;2023-08-24T01:02:14;13.50;;;3.65;;
65358;SDS011;52491;45.900;6.346;2023-08-24T01:04:42;7.65;;;4.00;;
65358;SDS011;52491;45.900;6.346;2023-08-24T01:07:09;8.77;;;3.47;;
65358;SDS011;52491;45.900;6.346;2023-08-24T01:09:35;13.55;;;3.85;;
65358;SDS011;52491;45.900;6.346;2023-08-24T01:17:34;9.88;;;4.53;;
65358;SDS011;52491;45.900;6.346;2023-08-24T01:20:01;10.80;;;3.60;;
65358;SDS011;52491;45.900;6.346;2023-08-24T01:22:34;9.75;;;3.75;;
65358;SDS011;52491;45.900;6.346;2023-08-24T01:27:43;10.43;;;3.50;;
65358;SDS011;52491;45.900;6.346;2023-08-24T01:30:09;9.95;;;3.20;;
65358;SDS011;52491;45.900;6.346;2023-08-24T01:32:36;7.03;;;2.85;;
65358;SDS011;52491;45.900;6.346;2023-08-24T01:35:03;14.40;;;3.95;;
65358;SDS011;52491;45.900;6.346;2023-08-24T01:37:30;8.20;;;3.35;;
65358;SDS011;52491;45.900;6.346;2023-08-24T01:40:03;10.02;;;3.72;;
65358;SDS011;52491;45.900;6.346;2023-08-24T01:45:24;8.68;;;3.40;;
65358;SDS011;52491;45.900;6.346;2023-08-24T01:47:55;6.00;;;3.05;;
65358;SDS011;52491;45.900;6.346;2023-08-24T01:50:22;13.82;;;3.95;;
65358;SDS011;52491;45.900;6.346;2023-08-24T01:52:49;8.43;;;3.35;;
65358;SDS011;52491;45.900;6.346;2023-08-24T01:55:18;11.82;;;3.60;;
65358;SDS011;52491;45.900;6.346;2023-08-24T01:57:45;9.60;;;4.07;;
65358;SDS011;52491;45.900;6.346;2023-08-24T02:00:10;7.95;;;3.35;;
65358;SDS011;52491;45.900;6.346;2023-08-24T02:02:36;12.88;;;4.32;;
65358;SDS011;52491;45.900;6.346;2023-08-24T02:05:03;13.82;;;4.10;;
65358;SDS011;52491;45.900;6.346;2023-08-24T02:07:29;14.40;;;3.55;;
65358;SDS011;52491;45.900;6.346;2023-08-24T02:09:55;9.55;;;3.72;;
65358;SDS011;52491;45.900;6.346;2023-08-24T02:12:20;8.98;;;3.80;;
65358;SDS011;52491;45.900;6.346;2023-08-24T02:14:46;10.60;;;3.38;;
65358;SDS011;52491;45.900;6.346;2023-08-24T02:17:12;15.05;;;4.03;;
65358;SDS011;52491;45.900;6.346;2023-08-24T02:19:39;12.60;;;4.60;;
65358;SDS011;52491;45.900;6.346;2023-08-24T02:22:06;11.32;;;3.78;;
65358;SDS011;52491;45.900;6.346;2023-08-24T02:24:32;9.38;;;3.40;;
65358;SDS011;52491;45.900;6.346;2023-08-24T02:26:57;10.68;;;3.40;;
65358;SDS011;52491;45.900;6.346;2023-08-24T02:29:23;15.18;;;4.45;;
65358;SDS011;52491;45.900;6.346;2023-08-24T02:31:49;12.35;;;4.05;;
65358;SDS011;52491;45.900;6.346;2023-08-24T02:34:16;8.75;;;2.83;;
65358;SDS011;52491;45.900;6.346;2023-08-24T02:36:42;13.13;;;3.85;;
65358;SDS011;52491;45.900;6.346;2023-08-24T02:39:07;10.35;;;3.50;;
65358;SDS011;52491;45.900;6.346;2023-08-24T02:41:33;7.72;;;3.88;;
65358;SDS011;52491;45.900;6.346;2023-08-24T02:44:00;13.43;;;3.65;;
65358;SDS011;52491;45.900;6.346;2023-08-24T02:46:25;8.48;;;3.47;;
65358;SDS011;52491;45.900;6.346;2023-08-24T02:48:51;7.45;;;3.88;;
65358;SDS011;52491;45.900;6.346;2023-08-24T02:51:16;12.23;;;4.15;;
65358;SDS011;52491;45.900;6.346;2023-08-24T02:53:42;12.27;;;3.75;;
65358;SDS011;52491;45.900;6.346;2023-08-24T02:56:07;15.63;;;4.10;;
65358;SDS011;52491;45.900;6.346;2023-08-24T02:58:33;12.30;;;3.90;;
65358;SDS011;52491;45.900;6.346;2023-08-24T03:00:59;9.23;;;3.00;;
65358;SDS011;52491;45.900;6.346;2023-08-24T03:03:30;13.40;;;4.95;;
65358;SDS011;52491;45.900;6.346;2023-08-24T03:06:03;11.38;;;3.78;;
65358;SDS011;52491;45.900;6.346;2023-08-24T03:08:31;11.05;;;4.10;;
65358;SDS011;52491;45.900;6.346;2023-08-24T03:10:58;10.00;;;3.88;;
65358;SDS011;52491;45.900;6.346;2023-08-24T03:13:24;9.48;;;3.17;;
65358;SDS011;52491;45.900;6.346;2023-08-24T03:15:50;10.68;;;3.45;;
65358;SDS011;52491;45.900;6.346;2023-08-24T03:18:17;11.98;;;4.28;;
65358;SDS011;52491;45.900;6.346;2023-08-24T03:20:46;13.38;;;3.78;;
65358;SDS011;52491;45.900;6.346;2023-08-24T03:23:13;12.20;;;4.30;;
65358;SDS011;52491;45.900;6.346;2023-08-24T03:25:39;11.80;;;4.25;;
65358;SDS011;52491;45.900;6.346;2023-08-24T03:28:06;11.95;;;4.38;;
65358;SDS011;52491;45.900;6.346;2023-08-24T03:30:33;14.95;;;3.75;;
65358;SDS011;52491;45.900;6.346;2023-08-24T03:33:02;20.27;;;3.85;;
65358;SDS011;52491;45.900;6.346;2023-08-24T03:35:31;17.23;;;4.25;;
65358;SDS011;52491;45.900;6.346;2023-08-24T03:37:57;12.02;;;3.55;;
65358;SDS011;52491;45.900;6.346;2023-08-24T03:40:23;12.32;;;4.45;;
65358;SDS011;52491;45.900;6.346;2023-08-24T03:42:49;13.43;;;4.35;;
65358;SDS011;52491;45.900;6.346;2023-08-24T03:45:15;13.57;;;4.07;;
65358;SDS011;52491;45.900;6.346;2023-08-24T03:47:40;14.65;;;4.68;;
65358;SDS011;52491;45.900;6.346;2023-08-24T03:50:06;13.55;;;4.20;;
65358;SDS011;52491;45.900;6.346;2023-08-24T03:52:32;20.10;;;4.80;;
65358;SDS011;52491;45.900;6.346;2023-08-24T03:54:58;18.23;;;4.85;;
65358;SDS011;52491;45.900;6.346;2023-08-24T03:57:24;9.18;;;4.38;;
65358;SDS011;52491;45.900;6.346;2023-08-24T03:59:49;11.15;;;4.25;;
65358;SDS011;52491;45.900;6.346;2023-08-24T04:02:15;13.65;;;4.88;;
65358;SDS011;52491;45.900;6.346;2023-08-24T04:04:40;14.57;;;3.90;;
65358;SDS011;52491;45.900;6.346;2023-08-24T04:07:06;15.35;;;4.28;;
65358;SDS011;52491;45.900;6.346;2023-08-24T04:09:31;13.32;;;4.07;;
65358;SDS011;52491;45.900;6.346;2023-08-24T04:11:57;16.02;;;4.20;;
65358;SDS011;52491;45.900;6.346;2023-08-24T04:14:22;9.75;;;3.95;;
65358;SDS011;52491;45.900;6.346;2023-08-24T04:16:48;10.18;;;3.78;;
65358;SDS011;52491;45.900;6.346;2023-08-24T04:19:14;12.95;;;3.53;;
65358;SDS011;52491;45.900;6.346;2023-08-24T04:21:39;12.30;;;3.13;;
65358;SDS011;52491;45.900;6.346;2023-08-24T04:24:05;11.23;;;3.80;;
65358;SDS011;52491;45.900;6.346;2023-08-24T04:26:30;14.55;;;5.05;;
65358;SDS011;52491;45.900;6.346;2023-08-24T04:28:56;12.70;;;4.03;;
65358;SDS011;52491;45.900;6.346;2023-08-24T04:31:22;16.50;;;5.03;;
65358;SDS011;52491;45.900;6.346;2023-08-24T04:33:47;16.00;;;4.10;;
65358;SDS011;52491;45.900;6.346;2023-08-24T04:36:13;10.40;;;4.35;;
65358;SDS011;52491;45.900;6.346;2023-08-24T04:38:39;18.48;;;4.80;;
65358;SDS011;52491;45.900;6.346;2023-08-24T04:41:06;11.98;;;4.55;;
65358;SDS011;52491;45.900;6.346;2023-08-24T04:43:33;19.75;;;4.95;;
65358;SDS011;52491;45.900;6.346;2023-08-24T04:45:59;11.25;;;3.65;;
65358;SDS011;52491;45.900;6.346;2023-08-24T04:48:25;11.82;;;4.30;;
65358;SDS011;52491;45.900;6.346;2023-08-24T04:50:51;19.63;;;4.45;;
65358;SDS011;52491;45.900;6.346;2023-08-24T04:53:21;14.05;;;4.72;;
65358;SDS011;52491;45.900;6.346;2023-08-24T04:55:47;15.63;;;4.28;;
65358;SDS011;52491;45.900;6.346;2023-08-24T04:58:12;18.48;;;4.72;;
65358;SDS011;52491;45.900;6.346;2023-08-24T05:00:38;14.05;;;4.15;;
65358;SDS011;52491;45.900;6.346;2023-08-24T05:03:04;19.63;;;4.13;;
65358;SDS011;52491;45.900;6.346;2023-08-24T05:05:31;20.00;;;5.07;;
65358;SDS011;52491;45.900;6.346;2023-08-24T05:07:58;15.65;;;4.97;;
65358;SDS011;52491;45.900;6.346;2023-08-24T05:10:25;18.23;;;4.57;;
65358;SDS011;52491;45.900;6.346;2023-08-24T05:12:51;7.82;;;3.42;;
65358;SDS011;52491;45.900;6.346;2023-08-24T05:15:16;18.55;;;5.13;;
65358;SDS011;52491;45.900;6.346;2023-08-24T05:17:42;10.90;;;4.00;;
65358;SDS011;52491;45.900;6.346;2023-08-24T05:20:08;11.57;;;4.60;;
65358;SDS011;52491;45.900;6.346;2023-08-24T05:22:37;12.88;;;4.05;;
65358;SDS011;52491;45.900;6.346;2023-08-24T05:25:03;13.68;;;3.80;;
65358;SDS011;52491;45.900;6.346;2023-08-24T05:27:29;13.63;;;4.65;;
65358;SDS011;52491;45.900;6.346;2023-08-24T05:29:55;17.58;;;4.50;;
65358;SDS011;52491;45.900;6.346;2023-08-24T05:32:21;14.88;;;4.63;;
65358;SDS011;52491;45.900;6.346;2023-08-24T05:34:47;14.20;;;4.13;;
65358;SDS011;52491;45.900;6.346;2023-08-24T05:37:12;11.80;;;4.70;;
65358;SDS011;52491;45.900;6.346;2023-08-24T05:39:38;10.88;;;3.67;;
65358;SDS011;52491;45.900;6.346;2023-08-24T05:42:03;12.38;;;4.78;;
65358;SDS011;52491;45.900;6.346;2023-08-24T05:44:29;13.48;;;4.70;;
65358;SDS011;52491;45.900;6.346;2023-08-24T05:46:55;10.88;;;3.65;;
65358;SDS011;52491;45.900;6.346;2023-08-24T05:49:21;10.00;;;3.60;;
65358;SDS011;52491;45.900;6.346;2023-08-24T05:51:46;12.50;;;3.95;;
65358;SDS011;52491;45.900;6.346;2023-08-24T05:54:15;16.00;;;5.32;;
65358;SDS011;52491;45.900;6.346;2023-08-24T05:56:43;12.57;;;4.68;;
65358;SDS011;52491;45.900;6.346;2023-08-24T05:59:13;12.02;;;4.18;;
65358;SDS011;52491;45.900;6.346;2023-08-24T06:01:39;8.35;;;3.97;;
65358;SDS011;52491;45.900;6.346;2023-08-24T06:04:05;14.23;;;5.00;;
65358;SDS011;52491;45.900;6.346;2023-08-24T06:06:30;20.75;;;5.05;;
65358;SDS011;52491;45.900;6.346;2023-08-24T06:08:56;13.85;;;4.93;;
65358;SDS011;52491;45.900;6.346;2023-08-24T06:11:22;12.07;;;4.43;;
65358;SDS011;52491;45.900;6.346;2023-08-24T06:13:48;19.88;;;6.13;;
65358;SDS011;52491;45.900;6.346;2023-08-24T06:16:14;19.05;;;4.50;;
65358;SDS011;52491;45.900;6.346;2023-08-24T06:18:40;12.95;;;4.13;;
65358;SDS011;52491;45.900;6.346;2023-08-24T06:21:05;15.73;;;4.75;;
65358;SDS011;52491;45.900;6.346;2023-08-24T06:23:33;18.10;;;5.55;;
65358;SDS011;52491;45.900;6.346;2023-08-24T06:25:59;20.60;;;4.07;;
65358;SDS011;52491;45.900;6.346;2023-08-24T06:28:26;10.38;;;4.18;;
65358;SDS011;52491;45.900;6.346;2023-08-24T06:30:52;22.05;;;5.05;;
65358;SDS011;52491;45.900;6.346;2023-08-24T06:33:20;15.63;;;4.75;;
65358;SDS011;52491;45.900;6.346;2023-08-24T06:35:47;16.67;;;5.45;;
65358;SDS011;52491;45.900;6.346;2023-08-24T06:38:15;12.15;;;4.78;;
65358;SDS011;52491;45.900;6.346;2023-08-24T06:40:42;14.57;;;4.07;;
65358;SDS011;52491;45.900;6.346;2023-08-24T06:43:08;22.13;;;5.60;;
65358;SDS011;52491;45.900;6.346;2023-08-24T06:45:34;13.68;;;5.20;;
65358;SDS011;52491;45.900;6.346;2023-08-24T06:48:00;16.25;;;4.65;;
65358;SDS011;52491;45.900;6.346;2023-08-24T06:50:26;18.02;;;5.78;;
65358;SDS011;52491;45.900;6.346;2023-08-24T06:52:52;13.25;;;4.50;;
65358;SDS011;52491;45.900;6.346;2023-08-24T06:55:21;12.98;;;4.20;;
65358;SDS011;52491;45.900;6.346;2023-08-24T06:57:48;13.82;;;5.10;;
65358;SDS011;52491;45.900;6.346;2023-08-24T07:00:16;15.50;;;4.78;;
65358;SDS011;52491;45.900;6.346;2023-08-24T07:02:47;14.52;;;5.60;;
65358;SDS011;52491;45.900;6.346;2023-08-24T07:05:14;19.02;;;5.75;;
65358;SDS011;52491;45.900;6.346;2023-08-24T07:07:46;22.15;;;4.50;;
65358;SDS011;52491;45.900;6.346;2023-08-24T07:10:14;13.27;;;4.80;;
65358;SDS011;52491;45.900;6.346;2023-08-24T07:12:41;17.67;;;5.63;;
65358;SDS011;52491;45.900;6.346;2023-08-24T07:15:10;12.07;;;4.57;;
65358;SDS011;52491;45.900;6.346;2023-08-24T07:17:37;15.23;;;4.82;;
65358;SDS011;52491;45.900;6.346;2023-08-24T07:20:04;17.73;;;5.32;;
65358;SDS011;52491;45.900;6.346;2023-08-24T07:22:31;11.38;;;4.88;;
65358;SDS011;52491;45.900;6.346;2023-08-24T07:24:57;15.07;;;4.72;;
65358;SDS011;52491;45.900;6.346;2023-08-24T07:27:23;16.20;;;4.80;;
65358;SDS011;52491;45.900;6.346;2023-08-24T07:29:49;22.85;;;5.72;;
65358;SDS011;52491;45.900;6.346;2023-08-24T07:32:14;18.25;;;5.07;;
65358;SDS011;52491;45.900;6.346;2023-08-24T07:34:40;17.98;;;4.97;;
65358;SDS011;52491;45.900;6.346;2023-08-24T07:37:05;16.45;;;5.38;;
65358;SDS011;52491;45.900;6.346;2023-08-24T07:39:32;13.70;;;4.82;;
65358;SDS011;52491;45.900;6.346;2023-08-24T07:41:58;9.75;;;4.32;;
65358;SDS011;52491;45.900;6.346;2023-08-24T07:44:24;15.63;;;5.32;;
65358;SDS011;52491;45.900;6.346;2023-08-24T07:46:49;18.17;;;4.97;;
65358;SDS011;52491;45.900;6.346;2023-08-24T07:49:15;11.05;;;4.63;;
65358;SDS011;52491;45.900;6.346;2023-08-24T07:51:41;12.45;;;4.80;;
65358;SDS011;52491;45.900;6.346;2023-08-24T07:54:12;14.02;;;4.72;;
65358;SDS011;52491;45.900;6.346;2023-08-24T07:56:38;13.95;;;4.53;;
65358;SDS011;52491;45.900;6.346;2023-08-24T07:59:03;10.73;;;4.50;;
65358;SDS011;52491;45.900;6.346;2023-08-24T08:01:29;13.90;;;4.70;;
65358;SDS011;52491;45.900;6.346;2023-08-24T08:03:55;9.75;;;4.22;;
65358;SDS011;52491;45.900;6.346;2023-08-24T08:06:22;11.68;;;4.97;;
65358;SDS011;52491;45.900;6.346;2023-08-24T08:08:49;12.68;;;5.15;;
65358;SDS011;52491;45.900;6.346;2023-08-24T08:11:16;18.80;;;5.57;;
65358;SDS011;52491;45.900;6.346;2023-08-24T08:13:42;15.85;;;5.10;;
65358;SDS011;52491;45.900;6.346;2023-08-24T08:16:08;13.45;;;6.00;;
65358;SDS011;52491;45.900;6.346;2023-08-24T08:18:34;15.90;;;4.72;;
65358;SDS011;52491;45.900;6.346;2023-08-24T08:21:06;12.63;;;4.90;;
65358;SDS011;52491;45.900;6.346;2023-08-24T08:23:34;10.13;;;3.60;;
65358;SDS011;52491;45.900;6.346;2023-08-24T08:25:59;21.30;;;5.20;;
65358;SDS011;52491;45.900;6.346;2023-08-24T08:28:25;10.43;;;4.65;;
65358;SDS011;52491;45.900;6.346;2023-08-24T08:30:50;8.90;;;3.80;;
65358;SDS011;52491;45.900;6.346;2023-08-24T08:33:16;11.30;;;5.03;;
65358;SDS011;52491;45.900;6.346;2023-08-24T08:35:41;11.68;;;4.28;;
65358;SDS011;52491;45.900;6.346;2023-08-24T08:38:07;15.60;;;4.10;;
65358;SDS011;52491;45.900;6.346;2023-08-24T08:40:33;7.45;;;3.70;;
65358;SDS011;52491;45.900;6.346;2023-08-24T08:43:02;11.10;;;4.07;;
65358;SDS011;52491;45.900;6.346;2023-08-24T08:45:28;8.88;;;3.60;;
65358;SDS011;52491;45.900;6.346;2023-08-24T08:47:57;17.60;;;5.22;;
65358;SDS011;52491;45.900;6.346;2023-08-24T08:50:25;9.48;;;4.25;;
65358;SDS011;52491;45.900;6.346;2023-08-24T08:52:51;9.88;;;3.95;;
65358;SDS011;52491;45.900;6.346;2023-08-24T08:55:18;9.65;;;3.97;;
65358;SDS011;52491;45.900;6.346;2023-08-24T08:57:47;8.80;;;3.65;;
65358;SDS011;52491;45.900;6.346;2023-08-24T09:00:17;8.35;;;4.20;;
65358;SDS011;52491;45.900;6.346;2023-08-24T09:02:44;12.18;;;4.70;;
65358;SDS011;52491;45.900;6.346;2023-08-24T09:05:12;10.18;;;3.65;;
65358;SDS011;52491;45.900;6.346;2023-08-24T09:07:41;7.50;;;4.15;;
65358;SDS011;52491;45.900;6.346;2023-08-24T09:10:07;12.52;;;3.95;;
65358;SDS011;52491;45.900;6.346;2023-08-24T09:12:34;9.45;;;3.88;;
65358;SDS011;52491;45.900;6.346;2023-08-24T09:15:04;9.68;;;3.80;;
65358;SDS011;52491;45.900;6.346;2023-08-24T09:17:32;8.55;;;3.88;;
65358;SDS011;52491;45.900;6.346;2023-08-24T09:19:59;6.13;;;3.63;;
65358;SDS011;52491;45.900;6.346;2023-08-24T09:22:26;7.28;;;3.17;;
65358;SDS011;52491;45.900;6.346;2023-08-24T09:24:52;9.32;;;3.72;;
65358;SDS011;52491;45.900;6.346;2023-08-24T09:27:20;10.40;;;3.72;;
65358;SDS011;52491;45.900;6.346;2023-08-24T09:29:50;11.48;;;4.22;;
65358;SDS011;52491;45.900;6.346;2023-08-24T09:32:30;6.35;;;3.30;;
65358;SDS011;52491;45.900;6.346;2023-08-24T09:35:04;5.78;;;3.28;;
65358;SDS011;52491;45.900;6.346;2023-08-24T09:37:34;6.28;;;2.92;;
65358;SDS011;52491;45.900;6.346;2023-08-24T09:40:05;6.63;;;3.20;;
65358;SDS011;52491;45.900;6.346;2023-08-24T09:42:38;6.65;;;3.58;;
65358;SDS011;52491;45.900;6.346;2023-08-24T09:45:05;4.95;;;2.97;;
65358;SDS011;52491;45.900;6.346;2023-08-24T09:47:35;5.55;;;3.33;;
65358;SDS011;52491;45.900;6.346;2023-08-24T09:50:02;6.78;;;3.42;;
65358;SDS011;52491;45.900;6.346;2023-08-24T09:52:29;5.40;;;3.00;;
65358;SDS011;52491;45.900;6.346;2023-08-24T09:54:58;5.60;;;3.08;;
65358;SDS011;52491;45.900;6.346;2023-08-24T09:57:29;5.32;;;3.22;;
65358;SDS011;52491;45.900;6.346;2023-08-24T10:00:02;7.93;;;3.30;;
65358;SDS011;52491;45.900;6.346;2023-08-24T10:02:35;4.75;;;2.50;;
65358;SDS011;52491;45.900;6.346;2023-08-24T10:05:03;3.40;;;2.83;;
65358;SDS011;52491;45.900;6.346;2023-08-24T10:07:30;4.55;;;3.20;;
65358;SDS011;52491;45.900;6.346;2023-08-24T10:10:02;3.05;;;2.40;;
65358;SDS011;52491;45.900;6.346;2023-08-24T10:12:31;4.18;;;2.67;;
65358;SDS011;52491;45.900;6.346;2023-08-24T10:15:12;4.68;;;3.10;;
65358;SDS011;52491;45.900;6.346;2023-08-24T10:17:39;5.18;;;2.72;;
65358;SDS011;52491;45.900;6.346;2023-08-24T10:20:05;6.15;;;3.28;;
65358;SDS011;52491;45.900;6.346;2023-08-24T10:22:35;5.80;;;3.35;;
65358;SDS011;52491;45.900;6.346;2023-08-24T10:25:04;5.65;;;2.63;;
65358;SDS011;52491;45.900;6.346;2023-08-24T10:27:33;3.88;;;2.65;;
65358;SDS011;52491;45.900;6.346;2023-08-24T10:29:59;6.28;;;2.92;;
65358;SDS011;52491;45.900;6.346;2023-08-24T10:32:25;4.95;;;2.60;;
65358;SDS011;52491;45.900;6.346;2023-08-24T10:34:52;4.95;;;3.42;;
65358;SDS011;52491;45.900;6.346;2023-08-24T10:37:26;4.63;;;2.90;;
65358;SDS011;52491;45.900;6.346;2023-08-24T10:39:52;3.33;;;2.67;;
65358;SDS011;52491;45.900;6.346;2023-08-24T10:42:18;5.50;;;2.63;;
65358;SDS011;52491;45.900;6.346;2023-08-24T10:44:44;8.93;;;3.45;;
65358;SDS011;52491;45.900;6.346;2023-08-24T10:52:22;6.60;;;3.08;;
65358;SDS011;52491;45.900;6.346;2023-08-24T10:54:49;3.30;;;2.10;;
65358;SDS011;52491;45.900;6.346;2023-08-24T10:57:19;6.20;;;2.58;;
65358;SDS011;52491;45.900;6.346;2023-08-24T11:00:07;3.03;;;2.65;;
65358;SDS011;52491;45.900;6.346;2023-08-24T11:05:21;4.07;;;3.03;;
65358;SDS011;52491;45.900;6.346;2023-08-24T11:08:01;3.47;;;2.58;;
65358;SDS011;52491;45.900;6.346;2023-08-24T11:10:45;20.05;;;6.65;;
65358;SDS011;52491;45.900;6.346;2023-08-24T11:15:48;47.13;;;15.43;;
65358;SDS011;52491;45.900;6.346;2023-08-24T11:18:26;23.95;;;9.40;;
65358;SDS011;52491;45.900;6.346;2023-08-24T11:23:28;24.50;;;10.27;;
65358;SDS011;52491;45.900;6.346;2023-08-24T11:25:55;23.52;;;9.48;;
65358;SDS011;52491;45.900;6.346;2023-08-24T11:28:25;31.60;;;9.75;;
65358;SDS011;52491;45.900;6.346;2023-08-24T11:30:56;27.83;;;9.95;;
65358;SDS011;52491;45.900;6.346;2023-08-24T11:33:34;22.50;;;9.57;;
65358;SDS011;52491;45.900;6.346;2023-08-24T11:36:00;24.60;;;10.23;;
65358;SDS011;52491;45.900;6.346;2023-08-24T11:38:38;20.45;;;8.48;;
65358;SDS011;52491;45.900;6.346;2023-08-24T11:41:14;26.10;;;8.65;;
65358;SDS011;52491;45.900;6.346;2023-08-24T11:43:49;20.92;;;8.45;;
65358;SDS011;52491;45.900;6.346;2023-08-24T11:46:25;28.83;;;9.23;;
65358;SDS011;52491;45.900;6.346;2023-08-24T11:48:58;24.90;;;8.38;;
65358;SDS011;52491;45.900;6.346;2023-08-24T11:51:24;20.25;;;9.35;;
65358;SDS011;52491;45.900;6.346;2023-08-24T11:53:51;22.23;;;8.10;;
65358;SDS011;52491;45.900;6.346;2023-08-24T11:56:18;21.65;;;8.60;;
65358;SDS011;52491;45.900;6.346;2023-08-24T11:58:47;23.13;;;8.93;;
65358;SDS011;52491;45.900;6.346;2023-08-24T12:01:15;20.58;;;8.40;;
65358;SDS011;52491;45.900;6.346;2023-08-24T12:03:42;26.48;;;9.10;;
65358;SDS011;52491;45.900;6.346;2023-08-24T12:06:16;23.00;;;7.38;;
65358;SDS011;52491;45.900;6.346;2023-08-24T12:08:44;18.73;;;7.65;;
65358;SDS011;52491;45.900;6.346;2023-08-24T12:11:15;21.55;;;8.23;;
65358;SDS011;52491;45.900;6.346;2023-08-24T12:13:45;17.08;;;6.80;;
65358;SDS011;52491;45.900;6.346;2023-08-24T12:16:16;26.40;;;7.80;;
65358;SDS011;52491;45.900;6.346;2023-08-24T12:19:01;18.42;;;7.32;;
65358;SDS011;52491;45.900;6.346;2023-08-24T12:21:32;20.48;;;7.18;;
65358;SDS011;52491;45.900;6.346;2023-08-24T12:24:05;18.75;;;7.45;;
65358;SDS011;52491;45.900;6.346;2023-08-24T12:26:32;19.80;;;6.93;;
65358;SDS011;52491;45.900;6.346;2023-08-24T12:29:05;15.35;;;6.85;;
65358;SDS011;52491;45.900;6.346;2023-08-24T12:31:32;16.58;;;7.30;;
65358;SDS011;52491;45.900;6.346;2023-08-24T12:34:03;16.98;;;6.65;;
65358;SDS011;52491;45.900;6.346;2023-08-24T12:36:34;15.95;;;6.57;;
65358;SDS011;52491;45.900;6.346;2023-08-24T12:39:02;18.65;;;6.07;;
65358;SDS011;52491;45.900;6.346;2023-08-24T12:41:32;15.07;;;5.63;;
65358;SDS011;52491;45.900;6.346;2023-08-24T12:43:59;10.50;;;5.78;;
65358;SDS011;52491;45.900;6.346;2023-08-24T12:46:30;14.18;;;5.38;;
65358;SDS011;52491;45.900;6.346;2023-08-24T12:49:00;12.95;;;5.40;;
65358;SDS011;52491;45.900;6.346;2023-08-24T12:51:27;13.75;;;5.35;;
65358;SDS011;52491;45.900;6.346;2023-08-24T12:53:53;13.70;;;5.38;;
65358;SDS011;52491;45.900;6.346;2023-08-24T12:56:20;11.82;;;5.30;;
65358;SDS011;52491;45.900;6.346;2023-08-24T12:58:47;7.65;;;4.75;;
65358;SDS011;52491;45.900;6.346;2023-08-24T13:01:13;13.38;;;5.25;;
65358;SDS011;52491;45.900;6.346;2023-08-24T13:03:38;11.75;;;5.05;;
65358;SDS011;52491;45.900;6.346;2023-08-24T13:06:07;13.00;;;4.47;;
65358;SDS011;52491;45.900;6.346;2023-08-24T13:08:32;8.82;;;4.00;;
65358;SDS011;52491;45.900;6.346;2023-08-24T13:10:58;9.20;;;4.60;;
65358;SDS011;52491;45.900;6.346;2023-08-24T13:13:24;9.02;;;4.32;;
65358;SDS011;52491;45.900;6.346;2023-08-24T13:15:49;8.65;;;4.50;;
65358;SDS011;52491;45.900;6.346;2023-08-24T13:18:16;9.45;;;4.85;;
65358;SDS011;52491;45.900;6.346;2023-08-24T13:20:42;6.30;;;3.45;;
65358;SDS011;52491;45.900;6.346;2023-08-24T13:23:08;7.75;;;3.97;;
65358;SDS011;52491;45.900;6.346;2023-08-24T13:25:33;11.88;;;4.15;;
65358;SDS011;52491;45.900;6.346;2023-08-24T13:27:59;9.65;;;3.42;;
65358;SDS011;52491;45.900;6.346;2023-08-24T13:30:25;9.52;;;4.50;;
65358;SDS011;52491;45.900;6.346;2023-08-24T13:32:50;8.65;;;3.40;;
65358;SDS011;52491;45.900;6.346;2023-08-24T13:35:16;8.40;;;3.30;;
65358;SDS011;52491;45.900;6.346;2023-08-24T13:37:41;8.48;;;4.35;;
65358;SDS011;52491;45.900;6.346;2023-08-24T13:40:07;8.18;;;3.72;;
65358;SDS011;52491;45.900;6.346;2023-08-24T13:42:33;7.30;;;3.78;;
65358;SDS011;52491;45.900;6.346;2023-08-24T13:44:59;6.43;;;3.28;;
65358;SDS011;52491;45.900;6.346;2023-08-24T13:47:24;6.50;;;3.33;;
65358;SDS011;52491;45.900;6.346;2023-08-24T13:49:50;4.32;;;3.00;;
65358;SDS011;52491;45.900;6.346;2023-08-24T13:52:16;5.82;;;3.05;;
65358;SDS011;52491;45.900;6.346;2023-08-24T13:54:44;9.32;;;4.28;;
65358;SDS011;52491;45.900;6.346;2023-08-24T13:57:11;6.30;;;3.22;;
65358;SDS011;52491;45.900;6.346;2023-08-24T13:59:37;10.63;;;3.72;;
65358;SDS011;52491;45.900;6.346;2023-08-24T14:02:04;7.78;;;2.85;;
65358;SDS011;52491;45.900;6.346;2023-08-24T14:04:31;7.20;;;3.35;;
65358;SDS011;52491;45.900;6.346;2023-08-24T14:06:56;6.32;;;3.40;;
65358;SDS011;52491;45.900;6.346;2023-08-24T14:09:23;8.73;;;3.63;;
65358;SDS011;52491;45.900;6.346;2023-08-24T14:11:52;6.75;;;2.85;;
65358;SDS011;52491;45.900;6.346;2023-08-24T14:14:18;6.05;;;2.72;;
65358;SDS011;52491;45.900;6.346;2023-08-24T14:16:45;6.78;;;2.63;;
65358;SDS011;52491;45.900;6.346;2023-08-24T14:19:11;4.63;;;3.08;;
65358;SDS011;52491;45.900;6.346;2023-08-24T14:21:37;6.65;;;2.95;;
65358;SDS011;52491;45.900;6.346;2023-08-24T14:24:03;5.45;;;2.63;;
65358;SDS011;52491;45.900;6.346;2023-08-24T14:26:28;8.23;;;3.08;;
65358;SDS011;52491;45.900;6.346;2023-08-24T14:28:55;5.95;;;2.80;;
65358;SDS011;52491;45.900;6.346;2023-08-24T14:31:26;7.05;;;3.45;;
65358;SDS011;52491;45.900;6.346;2023-08-24T14:33:55;4.78;;;2.20;;
65358;SDS011;52491;45.900;6.346;2023-08-24T14:36:21;3.42;;;2.08;;
65358;SDS011;52491;45.900;6.346;2023-08-24T14:38:48;3.20;;;2.55;;
65358;SDS011;52491;45.900;6.346;2023-08-24T14:41:14;9.15;;;2.85;;
65358;SDS011;52491;45.900;6.346;2023-08-24T14:43:40;5.57;;;2.15;;
65358;SDS011;52491;45.900;6.346;2023-08-24T14:46:07;4.95;;;2.85;;
65358;SDS011;52491;45.900;6.346;2023-08-24T14:48:33;6.85;;;2.88;;
65358;SDS011;52491;45.900;6.346;2023-08-24T14:51:00;2.97;;;2.05;;
65358;SDS011;52491;45.900;6.346;2023-08-24T14:53:27;4.72;;;2.47;;
65358;SDS011;52491;45.900;6.346;2023-08-24T14:55:53;5.00;;;3.03;;
65358;SDS011;52491;45.900;6.346;2023-08-24T14:58:25;4.45;;;2.30;;
65358;SDS011;52491;45.900;6.346;2023-08-24T15:00:53;3.30;;;1.98;;
65358;SDS011;52491;45.900;6.346;2023-08-24T15:03:22;4.85;;;2.60;;
65358;SDS011;52491;45.900;6.346;2023-08-24T15:08:29;3.97;;;2.25;;